Time;durP1;ratioP1;P1;durP2;ratioP2;P2;SDS_P1;SDS_P2;PMS_P1;PMS_P2;Temp;Humidity;BMP_temperature;BMP_pressure;BME280_temperature;BME280_humidity;BME280_pressure;Samples;Min_cycle;Max_cycle;Signal;HPM_P1;HPM_P2
2022/07/02 00:01:50;;;;;;;10.80;6.90;;;;;;;20.99;100.00;102032.06;7391731;19;20015;-48
2022/07/02 00:04:23;;;;;;;9.65;6.90;;;;;;;20.94;100.00;102037.72;7392892;19;20011;-47
2022/07/02 00:06:52;;;;;;;10.00;6.57;;;;;;;20.82;100.00;102033.22;7392755;19;20026;-47
2022/07/02 00:09:22;;;;;;;11.25;7.00;;;;;;;20.81;100.00;102039.53;7392594;19;20014;-47
2022/07/02 00:11:51;;;;;;;9.85;6.65;;;;;;;20.73;100.00;102032.94;7391047;19;20086;-48
2022/07/02 00:14:21;;;;;;;8.77;7.18;;;;;;;20.83;100.00;102041.16;7392461;19;20352;-47
2022/07/02 00:16:54;;;;;;;9.55;6.70;;;;;;;20.72;100.00;102033.03;7392897;19;20014;-47
2022/07/02 00:19:24;;;;;;;10.43;6.55;;;;;;;20.69;100.00;102043.88;7391302;19;20025;-48
2022/07/02 00:21:56;;;;;;;9.35;6.65;;;;;;;20.74;100.00;102039.94;7392202;19;20082;-47
2022/07/02 00:24:25;;;;;;;9.80;6.70;;;;;;;20.68;100.00;102039.53;7393383;19;20021;-47
2022/07/02 00:26:58;;;;;;;9.85;6.50;;;;;;;20.61;100.00;102031.06;7389890;19;20018;-48
2022/07/02 00:29:32;;;;;;;;;;;;;;;20.78;100.00;102050.41;7388827;19;20015;-47
2022/07/02 00:32:04;;;;;;;8.07;6.55;;;;;;;20.97;98.82;102037.50;7389087;19;19918;-51
2022/07/02 00:34:33;;;;;;;11.48;6.93;;;;;;;20.83;100.00;102037.59;7391342;19;20019;-47
2022/07/02 00:37:03;;;;;;;11.60;6.85;;;;;;;20.80;100.00;102041.34;7391239;19;20018;-47
2022/07/02 00:39:32;;;;;;;7.25;6.22;;;;;;;20.62;100.00;102040.75;7390690;19;20018;-48
2022/07/02 00:42:02;;;;;;;11.20;6.88;;;;;;;20.67;100.00;102028.00;7391659;19;20022;-50
2022/07/02 00:44:32;;;;;;;9.45;6.88;;;;;;;20.56;100.00;102028.72;7391920;19;20022;-47
2022/07/02 00:47:06;;;;;;;9.02;6.55;;;;;;;20.59;100.00;102040.97;7391464;19;20023;-47
2022/07/02 00:49:36;;;;;;;8.82;7.32;;;;;;;20.48;100.00;102030.19;7390002;19;20018;-49
2022/07/02 00:52:07;;;;;;;10.85;6.82;;;;;;;20.59;100.00;102032.97;7389584;19;20025;-47
2022/07/02 00:54:38;;;;;;;10.38;7.40;;;;;;;20.47;100.00;102028.47;7391376;19;20489;-48
2022/07/02 00:57:08;;;;;;;10.32;7.07;;;;;;;20.50;100.00;102028.25;7390578;19;20038;-47
2022/07/02 00:59:38;;;;;;;9.68;7.20;;;;;;;20.52;100.00;102026.38;7390581;19;20022;-47
2022/07/02 01:02:11;;;;;;;10.07;7.60;;;;;;;20.47;100.00;102021.31;7390559;19;20026;-48
2022/07/02 01:04:43;;;;;;;13.00;7.93;;;;;;;20.58;100.00;102020.63;7391390;19;20022;-45
2022/07/02 01:07:13;;;;;;;9.43;7.78;;;;;;;20.52;100.00;102024.53;7388253;19;20010;-49
2022/07/02 01:12:27;;;;;;;11.98;7.88;;;;;;;20.64;100.00;102019.34;7391293;19;20118;-48
2022/07/02 01:14:57;;;;;;;11.77;8.43;;;;;;;20.41;100.00;102019.09;7390688;19;20479;-47
2022/07/02 01:17:29;;;;;;;12.00;8.55;;;;;;;20.45;100.00;102012.59;7389626;19;20019;-50
2022/07/02 01:19:58;;;;;;;13.80;8.43;;;;;;;20.39;100.00;102010.34;7389545;19;20032;-50
2022/07/02 01:22:35;;;;;;;10.90;8.70;;;;;;;20.36;100.00;102003.41;7390579;19;20011;-47
2022/07/02 01:25:04;;;;;;;12.07;8.70;;;;;;;20.38;100.00;102011.31;7390380;19;20019;-47
2022/07/02 01:27:33;;;;;;;10.93;9.10;;;;;;;20.25;100.00;101997.13;7389411;19;20029;-48
2022/07/02 01:30:02;;;;;;;11.70;8.88;;;;;;;20.29;100.00;102004.78;7389476;19;20014;-51
2022/07/02 01:32:31;;;;;;;9.77;7.85;;;;;;;20.34;100.00;102001.81;7389526;19;20328;-51
2022/07/02 01:35:08;;;;;;;11.93;8.93;;;;;;;20.20;100.00;102008.03;7390410;19;20324;-49
2022/07/02 01:37:40;;;;;;;13.88;8.80;;;;;;;20.30;100.00;102000.31;7388490;19;20024;-48
2022/07/02 01:40:11;;;;;;;14.25;8.90;;;;;;;20.20;100.00;102000.94;7389084;19;20014;-50
2022/07/02 01:42:40;;;;;;;12.85;8.70;;;;;;;20.28;100.00;102010.22;7389519;19;20029;-47
2022/07/02 01:45:10;;;;;;;10.95;8.68;;;;;;;20.25;100.00;102008.59;7389549;19;20039;-49
2022/07/02 01:47:39;;;;;;;13.43;8.43;;;;;;;20.35;100.00;102014.19;7388236;19;20025;-47
2022/07/02 01:50:09;;;;;;;11.98;8.55;;;;;;;20.26;100.00;102023.63;7388020;19;20495;-48
2022/07/02 01:52:41;;;;;;;15.15;8.35;;;;;;;20.22;100.00;102022.13;7388741;19;20030;-47
2022/07/02 01:55:10;;;;;;;12.30;8.43;;;;;;;20.28;100.00;102015.53;7389387;19;20011;-49
2022/07/02 01:57:39;;;;;;;11.40;8.57;;;;;;;20.39;100.00;102021.00;7387937;19;20023;-51
2022/07/02 02:00:11;;;;;;;10.27;8.18;;;;;;;20.32;100.00;102017.88;7386626;19;20017;-48
2022/07/02 02:02:41;;;;;;;12.38;8.75;;;;;;;20.17;100.00;102018.91;7385801;19;20498;-47
2022/07/02 02:05:10;;;;;;;12.05;8.20;;;;;;;20.01;100.00;102024.38;7388163;19;20022;-49
2022/07/02 02:07:42;;;;;;;12.88;8.57;;;;;;;19.92;100.00;102028.50;7382833;19;20021;-48
2022/07/02 02:10:11;;;;;;;12.38;8.10;;;;;;;20.02;100.00;102028.75;7384666;19;20027;-47
2022/07/02 02:12:40;;;;;;;9.25;7.50;;;;;;;19.96;100.00;102021.16;7386328;19;20022;-49
2022/07/02 02:15:10;;;;;;;10.85;8.65;;;;;;;20.08;100.00;102020.34;7387778;19;20011;-48
2022/07/02 02:17:39;;;;;;;10.82;8.40;;;;;;;19.95;100.00;102017.66;7387949;19;20022;-48
2022/07/02 02:20:10;;;;;;;10.15;7.85;;;;;;;19.94;100.00;102015.94;7395016;19;20021;-50
2022/07/02 02:22:41;;;;;;;11.50;8.70;;;;;;;19.94;100.00;102017.75;7395864;19;20014;-48
2022/07/02 02:25:11;;;;;;;10.30;7.90;;;;;;;19.93;100.00;102013.38;7393632;19;20112;-50
2022/07/02 02:27:40;;;;;;;10.30;8.13;;;;;;;19.93;100.00;102018.69;7394006;19;20041;-49
2022/07/02 02:30:10;;;;;;;11.68;8.18;;;;;;;19.93;100.00;102024.88;7399016;19;20340;-50
2022/07/02 02:32:39;;;;;;;10.98;8.23;;;;;;;19.86;100.00;102015.59;7392754;19;20038;-52
2022/07/02 02:35:09;;;;;;;12.32;8.10;;;;;;;20.03;100.00;102010.03;7396178;19;20328;-50
2022/07/02 02:37:39;;;;;;;11.10;8.93;;;;;;;20.05;100.00;102008.09;7394345;19;20110;-47
2022/07/02 02:40:12;;;;;;;11.25;8.30;;;;;;;19.93;100.00;102008.94;7394459;19;20037;-46
2022/07/02 02:42:40;;;;;;;10.52;8.18;;;;;;;19.79;100.00;102001.84;7395674;19;20019;-48
2022/07/02 02:45:10;;;;;;;9.57;8.57;;;;;;;19.73;100.00;102009.31;7394738;19;20018;-47
2022/07/02 02:47:39;;;;;;;12.32;8.52;;;;;;;19.99;100.00;102016.50;7394055;19;20015;-46
2022/07/02 02:50:09;;;;;;;11.25;8.07;;;;;;;19.82;100.00;102014.94;7394612;19;20010;-46
2022/07/02 02:52:38;;;;;;;9.73;7.97;;;;;;;19.86;100.00;102018.25;7392240;19;20510;-47
2022/07/02 02:55:11;;;;;;;10.60;8.50;;;;;;;19.69;100.00;102020.16;7394626;19;20018;-46
2022/07/02 02:57:39;;;;;;;10.50;8.13;;;;;;;19.71;100.00;102020.03;7394630;19;20019;-46
2022/07/02 03:00:09;;;;;;;12.38;8.05;;;;;;;19.69;100.00;102021.97;7393529;19;20006;-50
2022/07/02 03:02:39;;;;;;;9.23;8.32;;;;;;;19.68;100.00;102033.53;7394410;19;20014;-47
2022/07/02 03:05:09;;;;;;;10.18;8.20;;;;;;;19.64;100.00;102029.38;7393896;19;20015;-48
2022/07/02 03:07:37;;;;;;;12.80;8.45;;;;;;;19.56;100.00;102029.88;7393102;19;20026;-47
2022/07/02 03:10:08;;;;;;;10.35;8.35;;;;;;;19.64;100.00;102024.91;7393699;19;20436;-47
2022/07/02 03:12:39;;;;;;;12.02;8.90;;;;;;;19.70;100.00;102024.53;7392138;19;20368;-48
2022/07/02 03:15:09;;;;;;;13.20;8.18;;;;;;;19.88;100.00;102033.13;7393927;19;20345;-47
2022/07/02 03:17:38;;;;;;;11.88;8.45;;;;;;;19.76;100.00;102025.94;7391156;19;20030;-47
2022/07/02 03:20:08;;;;;;;10.90;8.00;;;;;;;19.53;100.00;102028.25;7393568;19;20493;-47
2022/07/02 03:22:37;;;;;;;12.25;8.88;;;;;;;19.55;100.00;102025.50;7393921;19;20384;-49
2022/07/02 03:25:07;;;;;;;11.93;9.00;;;;;;;19.47;100.00;102033.97;7394033;19;20483;-47
2022/07/02 03:27:39;;;;;;;12.75;8.75;;;;;;;19.49;100.00;102039.19;7392432;19;20022;-51
2022/07/02 03:30:10;;;;;;;11.00;8.77;;;;;;;19.42;100.00;102040.50;7391649;19;20454;-51
2022/07/02 03:32:39;;;;;;;10.77;9.10;;;;;;;19.52;100.00;102041.63;7391494;19;20018;-53
2022/07/02 03:35:08;;;;;;;13.07;8.95;;;;;;;19.58;100.00;102046.56;7393229;19;20014;-47
2022/07/02 03:37:37;;;;;;;12.18;9.02;;;;;;;19.52;100.00;102044.28;7392767;19;20049;-49
2022/07/02 03:40:07;;;;;;;10.07;9.02;;;;;;;19.52;100.00;102045.13;7392638;19;20015;-50
2022/07/02 03:42:39;;;;;;;11.82;9.18;;;;;;;19.60;100.00;102063.28;7391724;19;20014;-53
2022/07/02 03:45:09;;;;;;;11.13;8.82;;;;;;;19.59;100.00;102060.72;7394072;19;20352;-53
2022/07/02 03:47:38;;;;;;;12.75;9.02;;;;;;;19.59;100.00;102056.25;7392756;19;20045;-51
2022/07/02 03:50:08;;;;;;;11.15;8.70;;;;;;;19.58;100.00;102054.53;7392933;19;20349;-48
2022/07/02 03:52:39;;;;;;;10.95;8.50;;;;;;;19.61;100.00;102051.69;7390737;19;20015;-45
2022/07/02 03:55:09;;;;;;;10.70;9.15;;;;;;;19.71;100.00;102052.84;7392998;19;20014;-49
2022/07/02 03:57:41;;;;;;;11.07;9.00;;;;;;;19.65;100.00;102052.34;7392788;19;20034;-47
2022/07/02 04:00:11;;;;;;;12.02;9.02;;;;;;;19.72;100.00;102056.34;7392009;19;20018;-48
2022/07/02 04:02:43;;;;;;;10.25;9.20;;;;;;;19.63;100.00;102056.91;7394260;19;20018;-48
2022/07/02 04:05:12;;;;;;;14.00;9.63;;;;;;;19.60;100.00;102057.97;7392818;19;20026;-47
2022/07/02 04:07:41;;;;;;;11.75;8.63;;;;;;;19.62;100.00;102063.19;7392449;19;20025;-47
2022/07/02 04:10:11;;;;;;;11.45;9.05;;;;;;;19.58;100.00;102069.66;7393234;19;20017;-46
2022/07/02 04:12:42;;;;;;;10.68;9.50;;;;;;;19.57;100.00;102065.28;7391323;19;20018;-47
2022/07/02 04:15:12;;;;;;;12.93;9.43;;;;;;;19.60;100.00;102068.59;7392920;19;20021;-50
2022/07/02 04:17:41;;;;;;;12.63;10.27;;;;;;;19.70;100.00;102067.06;7392430;19;20489;-45
2022/07/02 04:20:11;;;;;;;13.30;9.85;;;;;;;19.66;100.00;102068.22;7391543;19;20085;-47
2022/07/02 04:22:40;;;;;;;12.38;10.05;;;;;;;19.82;100.00;102070.78;7393059;19;20015;-44
2022/07/02 04:25:10;;;;;;;21.65;9.73;;;;;;;19.74;100.00;102066.88;7392510;19;20007;-51
2022/07/02 04:27:38;;;;;;;13.70;9.52;;;;;;;19.73;100.00;102060.72;7391410;19;20018;-48
2022/07/02 04:30:11;;;;;;;10.35;9.30;;;;;;;19.61;100.00;102064.97;7392182;19;20153;-50
2022/07/02 04:32:40;;;;;;;10.45;9.35;;;;;;;19.74;100.00;102066.88;7391589;19;20702;-50
2022/07/02 04:35:10;;;;;;;14.90;9.95;;;;;;;19.74;100.00;102059.75;7392902;19;20016;-46
2022/07/02 04:37:40;;;;;;;10.45;9.32;;;;;;;19.70;100.00;102067.06;7392301;19;20018;-47
2022/07/02 04:40:10;;;;;;;11.40;9.82;;;;;;;19.87;100.00;102065.16;7391271;19;20471;-49
2022/07/02 04:42:39;;;;;;;12.10;9.98;;;;;;;20.02;100.00;102058.88;7391818;19;20014;-47
2022/07/02 04:45:11;;;;;;;13.00;10.13;;;;;;;19.96;100.00;102055.72;7391410;19;20022;-48
2022/07/02 04:47:40;;;;;;;13.70;10.45;;;;;;;20.02;100.00;102058.03;7392174;19;20367;-49
2022/07/02 04:50:10;;;;;;;13.85;10.13;;;;;;;20.09;100.00;102054.00;7391938;19;20021;-48
2022/07/02 04:52:39;;;;;;;11.93;9.88;;;;;;;20.14;100.00;102059.88;7392007;19;20026;-47
2022/07/02 04:55:09;;;;;;;14.52;9.48;;;;;;;20.27;100.00;102059.06;7392527;19;20014;-50
2022/07/02 04:57:37;;;;;;;14.20;9.38;;;;;;;20.12;100.00;102064.44;7391626;19;20479;-48
2022/07/02 05:00:08;;;;;;;10.73;9.13;;;;;;;20.19;100.00;102064.91;7391053;19;20018;-49
2022/07/02 05:02:40;;;;;;;12.40;9.30;;;;;;;20.38;100.00;102065.38;7392506;19;20494;-47
2022/07/02 05:05:09;;;;;;;11.80;8.33;;;;;;;20.21;96.75;102066.50;7390454;19;20074;-52
2022/07/02 05:07:38;;;;;;;11.02;8.98;;;;;;;20.35;95.70;102060.28;7391563;19;20022;-48
2022/07/02 05:10:07;;;;;;;11.13;8.38;;;;;;;20.28;97.36;102061.63;7391020;19;20356;-47
2022/07/02 05:12:36;;;;;;;10.48;7.95;;;;;;;20.42;95.84;102066.06;7390772;19;20022;-47
2022/07/02 05:15:06;;;;;;;10.48;7.97;;;;;;;20.56;96.58;102063.31;7391405;19;20018;-46
2022/07/02 05:17:35;;;;;;;10.45;8.38;;;;;;;20.70;96.97;102064.22;7390263;19;20474;-47
2022/07/02 05:20:08;;;;;;;10.23;8.10;;;;;;;20.83;95.30;102069.59;7388681;19;20022;-47
2022/07/02 05:22:36;;;;;;;;;;;;;;;20.97;97.17;102068.66;7391717;19;20479;-46
2022/07/02 05:25:06;;;;;;;10.82;7.55;;;;;;;20.98;94.80;102073.88;7391397;19;19915;-51
2022/07/02 05:27:35;;;;;;;10.45;7.70;;;;;;;21.02;92.99;102069.16;7390296;19;20015;-47
2022/07/02 05:30:04;;;;;;;13.30;7.25;;;;;;;20.91;93.26;102067.25;7390347;19;20100;-46
2022/07/02 05:32:33;;;;;;;7.97;6.68;;;;;;;20.71;86.06;102068.59;7390385;19;20019;-46
2022/07/02 05:35:02;;;;;;;12.23;6.85;;;;;;;20.71;90.52;102061.47;7391289;19;20018;-47
2022/07/02 05:37:34;;;;;;;11.13;6.63;;;;;;;20.85;91.39;102070.34;7390775;19;20026;-49
2022/07/02 05:40:03;;;;;;;9.93;7.40;;;;;;;20.36;84.92;102067.31;7390255;19;20018;-46
2022/07/02 05:42:32;;;;;;;9.35;7.43;;;;;;;20.79;89.21;102070.75;7391356;19;20022;-48
2022/07/02 05:45:00;;;;;;;10.95;6.88;;;;;;;20.89;86.07;102077.16;7390886;19;20039;-51
2022/07/02 05:47:30;;;;;;;10.57;6.47;;;;;;;21.14;87.72;102084.31;7390926;19;20483;-48
2022/07/02 05:49:58;;;;;;;8.07;5.50;;;;;;;20.68;85.54;102066.16;7388631;19;20021;-46
2022/07/02 05:52:27;;;;;;;8.32;5.03;;;;;;;20.98;85.12;102081.03;7392038;19;20025;-46
2022/07/02 05:54:59;;;;;;;7.90;5.35;;;;;;;21.28;86.12;102080.72;7397778;19;20037;-48
2022/07/02 05:57:28;;;;;;;15.80;5.75;;;;;;;21.14;83.34;102081.66;7397409;19;20364;-47
2022/07/02 05:59:58;;;;;;;8.63;5.40;;;;;;;21.27;82.87;102095.84;7396997;19;20025;-47
2022/07/02 06:02:27;;;;;;;7.35;4.60;;;;;;;21.36;79.96;102096.16;7396748;19;20045;-52
2022/07/02 06:04:56;;;;;;;6.38;4.50;;;;;;;21.44;79.83;102091.16;7398980;19;20019;-47
2022/07/02 06:10:10;;;;;;;6.15;3.92;;;;;;;21.17;80.88;102105.44;7397308;19;20015;-48
2022/07/02 06:12:39;;;;;;;6.97;4.22;;;;;;;21.56;75.92;102100.13;7397207;19;20479;-48
2022/07/02 06:15:09;;;;;;;8.07;3.90;;;;;;;21.66;73.61;102095.84;7397913;19;20018;-48
2022/07/02 06:17:37;;;;;;;7.30;3.20;;;;;;;21.51;71.82;102091.59;7396735;19;20026;-49
2022/07/02 06:20:07;;;;;;;6.05;3.10;;;;;;;21.42;70.70;102095.75;7396900;19;20021;-51
2022/07/02 06:22:36;;;;;;;5.45;2.75;;;;;;;21.23;73.62;102090.81;7397419;19;20026;-48
2022/07/02 06:25:05;;;;;;;4.55;2.60;;;;;;;21.24;74.12;102097.88;7397346;19;20024;-48
2022/07/02 06:27:38;;;;;;;6.65;2.50;;;;;;;21.05;67.99;102092.97;7396541;19;20622;-47
2022/07/02 06:30:08;;;;;;;6.75;2.40;;;;;;;20.96;67.98;102102.44;7396497;19;20025;-49
2022/07/02 06:32:38;;;;;;;5.03;2.47;;;;;;;21.24;72.77;102103.22;7395737;19;20034;-48
2022/07/02 06:35:08;;;;;;;4.63;2.40;;;;;;;21.37;72.21;102105.88;7396824;19;20030;-48
2022/07/02 06:37:37;;;;;;;3.70;2.15;;;;;;;21.31;69.90;102100.97;7396258;19;20014;-47
2022/07/02 06:40:07;;;;;;;5.05;1.75;;;;;;;21.11;68.62;102110.34;7396434;19;20490;-48
2022/07/02 06:42:39;;;;;;;4.88;2.13;;;;;;;21.45;72.50;102106.19;7396957;19;20017;-48
2022/07/02 06:45:09;;;;;;;2.63;1.73;;;;;;;21.26;65.30;102110.16;7395408;19;20018;-49
2022/07/02 06:47:42;;;;;;;3.20;1.80;;;;;;;21.47;65.91;102095.41;7395420;19;20023;-49
2022/07/02 06:50:13;;;;;;;4.63;1.52;;;;;;;20.82;62.11;102111.38;7395750;19;20019;-49
2022/07/02 06:52:44;;;;;;;4.80;1.92;;;;;;;21.27;64.44;102106.50;7395170;19;20022;-48
2022/07/02 06:55:13;;;;;;;5.90;1.88;;;;;;;21.46;64.23;102107.03;7396233;19;20022;-52
2022/07/02 06:57:45;;;;;;;4.18;2.00;;;;;;;21.26;65.61;102119.94;7395147;19;20336;-50
2022/07/02 07:00:14;;;;;;;3.60;1.70;;;;;;;21.20;66.47;102121.22;7395498;19;20018;-49
2022/07/02 07:02:45;;;;;;;3.75;1.33;;;;;;;21.27;65.19;102118.97;7395920;19;20018;-51
2022/07/02 07:05:14;;;;;;;2.72;1.20;;;;;;;21.57;66.39;102112.50;7394825;19;20025;-51
2022/07/02 07:07:42;;;;;;;3.75;1.38;;;;;;;21.79;69.85;102122.50;7395037;19;20058;-50
2022/07/02 07:10:11;;;;;;;4.93;1.60;;;;;;;21.87;64.78;102127.31;7395144;19;20011;-48
2022/07/02 07:12:40;;;;;;;4.03;1.30;;;;;;;21.84;62.72;102123.03;7392911;19;20363;-48
2022/07/02 07:15:12;;;;;;;5.65;1.48;;;;;;;21.68;63.16;102125.94;7395868;19;20018;-48
2022/07/02 07:17:41;;;;;;;3.58;1.15;;;;;;;21.49;63.33;102129.03;7395698;19;20018;-47
2022/07/02 07:20:16;;;;;;;3.70;1.63;;;;;;;21.84;68.22;102130.19;7395809;19;20006;-51
2022/07/02 07:22:45;;;;;;;3.75;1.15;;;;;;;21.70;59.93;102131.16;7395095;19;20079;-51
2022/07/02 07:25:14;;;;;;;2.58;1.33;;;;;;;21.47;57.27;102130.09;7395373;19;20022;-48
2022/07/02 07:27:43;;;;;;;2.00;1.17;;;;;;;21.38;54.96;102123.59;7393835;19;20029;-49
2022/07/02 07:30:15;;;;;;;3.50;0.98;;;;;;;21.56;54.36;102132.13;7394624;19;20478;-47
2022/07/02 07:32:44;;;;;;;2.67;1.00;;;;;;;21.82;52.47;102130.31;7394207;19;20018;-51
2022/07/02 07:35:13;;;;;;;2.63;0.80;;;;;;;21.86;52.90;102134.44;7394926;19;20511;-48
2022/07/02 07:37:42;;;;;;;2.33;0.90;;;;;;;21.82;52.30;102132.09;7394513;19;20021;-47
2022/07/02 07:40:11;;;;;;;2.15;1.08;;;;;;;22.18;55.20;102130.41;7393563;19;20030;-52
2022/07/02 07:42:40;;;;;;;3.58;1.00;;;;;;;22.03;53.10;102135.91;7395287;19;20014;-51
2022/07/02 07:45:10;;;;;;;4.50;0.90;;;;;;;21.66;52.64;102119.84;7395113;19;20368;-51
2022/07/02 07:47:42;;;;;;;2.83;1.13;;;;;;;21.81;56.01;102123.25;7394329;19;20018;-50
2022/07/02 07:50:11;;;;;;;3.28;0.90;;;;;;;21.78;51.23;102118.16;7393834;19;20024;-47
2022/07/02 07:52:40;;;;;;;4.70;1.10;;;;;;;22.08;51.27;102125.75;7393332;19;20018;-50
2022/07/02 07:55:10;;;;;;;1.92;1.02;;;;;;;21.98;51.30;102123.84;7393161;19;20011;-50
2022/07/02 07:57:39;;;;;;;2.35;0.98;;;;;;;22.33;51.21;102121.31;7393534;19;20017;-47
2022/07/02 08:00:10;;;;;;;2.30;0.95;;;;;;;22.48;55.39;102113.13;7393012;19;20022;-48
2022/07/02 08:02:48;;;;;;;2.67;1.13;;;;;;;22.16;50.88;102113.66;7392972;19;20026;-48
2022/07/02 08:05:18;;;;;;;4.03;0.95;;;;;;;22.11;52.01;102117.50;7393735;19;20503;-49
2022/07/02 08:07:46;;;;;;;3.58;1.00;;;;;;;22.07;54.24;102113.38;7392603;19;20025;-51
2022/07/02 08:10:15;;;;;;;2.63;1.00;;;;;;;22.56;53.42;102110.75;7391143;19;20017;-49
2022/07/02 08:12:44;;;;;;;3.25;0.95;;;;;;;22.73;53.80;102106.81;7392575;19;20356;-52
2022/07/02 08:15:13;;;;;;;3.83;1.00;;;;;;;22.66;55.30;102105.56;7393250;19;20048;-50
2022/07/02 08:17:42;;;;;;;3.13;1.02;;;;;;;22.81;54.74;102104.41;7392591;19;20529;-47
2022/07/02 08:20:14;;;;;;;4.55;1.10;;;;;;;23.06;55.78;102090.00;7392674;19;20017;-53
2022/07/02 08:22:46;;;;;;;2.83;1.10;;;;;;;23.13;52.51;102093.09;7392660;19;20022;-48
2022/07/02 08:25:16;;;;;;;3.97;1.40;;;;;;;23.50;54.27;102088.38;7392508;19;20034;-48
2022/07/02 08:27:45;;;;;;;2.83;1.15;;;;;;;23.13;52.33;102083.22;7392214;19;20078;-50
2022/07/02 08:30:15;;;;;;;2.55;1.30;;;;;;;22.92;53.01;102099.06;7391902;19;20368;-53
2022/07/02 08:32:44;;;;;;;1.92;0.85;;;;;;;22.79;55.27;102096.47;7392112;19;20007;-50
2022/07/02 08:35:16;;;;;;;2.33;1.30;;;;;;;23.15;55.31;102097.34;7393142;19;20452;-46
2022/07/02 08:37:45;;;;;;;3.10;1.30;;;;;;;23.29;52.70;102096.25;7391681;19;20030;-46
2022/07/02 08:40:14;;;;;;;4.50;1.35;;;;;;;23.42;55.62;102098.81;7391626;19;20130;-47
2022/07/02 08:42:44;;;;;;;2.22;1.08;;;;;;;23.47;54.00;102087.78;7392881;19;20479;-50
2022/07/02 08:45:14;;;;;;;3.08;1.27;;;;;;;23.72;51.80;102089.34;7391891;19;20021;-46
2022/07/02 08:47:44;;;;;;;3.80;1.40;;;;;;;23.87;52.11;102091.78;7391781;19;20082;-46
2022/07/02 08:50:18;;;;;;;6.70;2.15;;;;;;;23.96;53.38;102089.22;7391016;19;20077;-50
2022/07/02 08:52:48;;;;;;;4.68;1.33;;;;;;;23.97;51.78;102092.72;7391393;19;20498;-51
2022/07/02 08:55:17;;;;;;;2.65;1.00;;;;;;;23.79;52.19;102084.34;7391613;19;20025;-49
2022/07/02 08:57:47;;;;;;;5.05;1.20;;;;;;;23.21;50.26;102087.13;7391098;19;20019;-47
2022/07/02 09:00:17;;;;;;;4.82;1.33;;;;;;;24.08;52.38;102079.31;7391191;19;20015;-47
2022/07/02 09:02:47;;;;;;;5.22;1.70;;;;;;;24.03;51.66;102081.53;7392098;19;20006;-45
2022/07/02 09:05:20;;;;;;;6.55;1.50;;;;;;;24.27;51.49;102077.81;7391464;19;20356;-45
2022/07/02 09:07:50;;;;;;;4.05;1.33;;;;;;;24.44;51.37;102077.25;7391130;19;20633;-45
2022/07/02 09:10:21;;;;;;;3.78;1.40;;;;;;;23.66;49.69;102076.44;7390870;19;20063;-49
2022/07/02 09:12:50;;;;;;;5.72;1.23;;;;;;;23.96;51.37;102077.66;7392687;19;20014;-51
2022/07/02 09:15:19;;;;;;;3.58;1.25;;;;;;;23.72;52.08;102075.13;7392279;19;20039;-47
2022/07/02 09:17:48;;;;;;;3.97;1.30;;;;;;;23.72;49.53;102070.59;7390205;19;20019;-46
2022/07/02 09:20:20;;;;;;;2.92;1.35;;;;;;;24.05;50.22;102070.69;7390072;19;20047;-44
2022/07/02 09:22:52;;;;;;;3.53;1.17;;;;;;;24.13;50.20;102073.59;7391254;19;20014;-45
2022/07/02 09:25:22;;;;;;;1.73;1.05;;;;;;;24.33;49.39;102070.13;7391411;19;20258;-45
2022/07/02 09:28:00;;;;;;;4.88;1.05;;;;;;;23.76;49.52;102065.88;7389003;19;20007;-51
2022/07/02 09:30:32;;;;;;;2.85;1.17;;;;;;;24.19;49.29;102065.91;7390208;19;20045;-48
2022/07/02 09:35:45;;;;;;;3.80;1.33;;;;;;;23.95;47.57;102065.25;7390716;19;20825;-46
2022/07/02 09:38:14;;;;;;;2.80;1.42;;;;;;;23.95;48.69;102050.00;7389063;19;20367;-49
2022/07/02 09:40:53;;;;;;;2.28;1.20;;;;;;;23.78;49.42;102046.00;7389931;19;20025;-51
2022/07/02 09:43:30;;;;;;;5.93;1.83;;;;;;;24.35;51.74;102052.06;7390170;19;20017;-50
2022/07/02 09:45:59;;;;;;;3.08;1.60;;;;;;;23.30;48.92;102051.66;7389992;19;20014;-46
2022/07/02 09:48:28;;;;;;;3.97;1.10;;;;;;;24.20;49.82;102056.06;7387986;19;20123;-47
2022/07/02 09:51:06;;;;;;;5.25;1.90;;;;;;;24.57;49.81;102052.09;7389770;19;20045;-45
2022/07/02 09:53:35;;;;;;;3.92;1.40;;;;;;;24.45;48.20;102043.28;7389440;19;20087;-47
2022/07/02 09:56:06;;;;;;;3.80;1.17;;;;;;;24.69;51.07;102045.75;7390621;19;20125;-47
2022/07/02 09:58:36;;;;;;;3.35;1.40;;;;;;;24.97;47.66;102046.88;7388334;19;20018;-48
2022/07/02 10:01:05;;;;;;;4.10;1.50;;;;;;;25.27;49.92;102041.69;7389563;19;20018;-46
2022/07/02 10:03:34;;;;;;;6.60;1.60;;;;;;;25.53;46.51;102059.06;7389770;19;20021;-45
2022/07/02 10:06:06;;;;;;;4.57;1.60;;;;;;;25.82;43.94;102044.84;7390115;19;20015;-46
2022/07/02 10:08:36;;;;;;;5.70;1.87;;;;;;;25.62;46.38;102040.41;7388635;19;20021;-49
2022/07/02 10:11:06;;;;;;;4.55;1.70;;;;;;;25.61;45.31;102044.94;7390155;19;20025;-51
2022/07/02 10:13:38;;;;;;;4.93;1.20;;;;;;;25.64;44.00;102041.97;7389076;19;20011;-45
2022/07/02 10:16:11;;;;;;;4.45;1.40;;;;;;;25.49;44.03;102046.00;7389765;19;20007;-46
2022/07/02 10:18:42;;;;;;;6.22;1.40;;;;;;;24.97;43.19;102035.31;7387140;19;20081;-46
2022/07/02 10:21:15;;;;;;;3.78;1.65;;;;;;;25.53;46.17;102029.53;7389874;19;20015;-47
2022/07/02 10:23:47;;;;;;;3.17;1.50;;;;;;;25.26;44.80;102021.19;7389870;19;20022;-45
2022/07/02 10:26:16;;;;;;;8.32;1.50;;;;;;;25.77;45.77;102022.09;7389613;19;20364;-50
2022/07/02 10:28:45;;;;;;;4.10;1.50;;;;;;;26.18;44.59;102029.09;7387412;19;20376;-48
2022/07/02 10:31:20;;;;;;;3.80;1.33;;;;;;;25.67;43.25;102028.28;7389556;19;20021;-47
2022/07/02 10:33:56;;;;;;;4.40;1.50;;;;;;;25.77;42.95;102028.28;7388548;19;20074;-45
2022/07/02 10:36:27;;;;;;;3.50;1.13;;;;;;;25.19;45.43;102015.53;7389054;19;20033;-47
2022/07/02 10:39:01;;;;;;;4.43;1.30;;;;;;;25.32;44.29;102013.50;7385388;19;20329;-45
2022/07/02 10:41:32;;;;;;;3.13;1.23;;;;;;;24.70;44.58;102007.22;7396229;19;20457;-45
2022/07/02 10:44:02;;;;;;;3.22;1.30;;;;;;;25.41;45.10;102013.66;7397013;19;20014;-45
2022/07/02 10:46:39;;;;;;;3.65;1.20;;;;;;;25.83;44.19;102005.41;7396400;19;20026;-45
2022/07/02 10:49:08;;;;;;;1.83;1.20;;;;;;;25.52;42.52;102009.03;7393264;19;20022;-45
2022/07/02 10:51:40;;;;;;;4.85;1.20;;;;;;;25.72;45.60;102004.56;7396386;19;20025;-45
2022/07/02 10:54:10;;;;;;;2.78;1.40;;;;;;;25.73;43.78;102006.25;7395303;19;20022;-45
2022/07/02 10:56:49;;;;;;;4.55;1.20;;;;;;;25.86;42.31;101997.06;7396299;19;20021;-48
2022/07/02 10:59:25;;;;;;;3.45;1.40;;;;;;;25.74;44.28;101991.81;7392815;19;20018;-44
2022/07/02 11:02:03;;;;;;;2.88;1.15;;;;;;;26.19;41.16;102003.06;7395892;19;20025;-45
2022/07/02 11:04:32;;;;;;;5.38;1.13;;;;;;;26.62;40.11;101999.03;7396416;19;20118;-45
2022/07/02 11:07:12;;;;;;;3.53;1.10;;;;;;;26.58;41.04;101993.09;7395372;19;20018;-47
2022/07/02 11:09:48;;;;;;;6.68;1.45;;;;;;;26.30;37.69;102010.97;7393580;19;20014;-46
2022/07/02 11:12:21;;;;;;;3.97;1.30;;;;;;;26.48;38.57;102012.94;7395660;19;20052;-44
2022/07/02 11:14:56;;;;;;;5.82;1.40;;;;;;;26.90;38.94;101991.91;7393243;19;20086;-44
2022/07/02 11:17:26;;;;;;;3.42;1.23;;;;;;;26.92;39.84;101991.75;7394486;19;20026;-47
2022/07/02 11:19:57;;;;;;;4.45;1.05;;;;;;;26.91;41.01;101990.09;7394110;19;20048;-47
2022/07/02 11:22:33;;;;;;;4.32;1.20;;;;;;;27.05;41.94;101986.06;7395464;19;20026;-45
2022/07/02 11:25:02;;;;;;;4.13;1.33;;;;;;;26.45;39.41;101983.66;7395417;19;20010;-45
2022/07/02 11:27:31;;;;;;;3.25;1.40;;;;;;;26.22;40.80;101989.31;7394093;19;20021;-47
2022/07/02 11:30:01;;;;;;;4.18;1.40;;;;;;;26.56;41.15;101978.13;7394491;19;20011;-44
2022/07/02 11:32:37;;;;;;;3.05;1.08;;;;;;;26.57;39.07;101969.06;7395380;19;20018;-44
2022/07/02 11:35:08;;;;;;;3.40;1.30;;;;;;;26.33;40.11;101985.66;7393097;19;20332;-47
2022/07/02 11:37:39;;;;;;;3.83;1.20;;;;;;;27.24;40.73;101977.91;7394192;19;20018;-47
2022/07/02 11:40:20;;;;;;;3.78;1.42;;;;;;;27.32;40.56;101973.59;7393669;19;20478;-47
2022/07/02 11:42:49;;;;;;;3.28;1.30;;;;;;;27.15;41.05;101965.31;7394921;19;20088;-47